createdAt,value
2023-01-18T00:01:37.894Z,8.52
2023-01-18T00:04:08.336Z,8.44
2023-01-18T00:06:37.283Z,8.80
2023-01-18T00:09:06.269Z,8.75
2023-01-18T00:11:35.330Z,7.86
2023-01-18T00:14:04.662Z,8.68
2023-01-18T00:16:34.410Z,8.48
2023-01-18T00:19:03.368Z,8.63
2023-01-18T00:21:34.765Z,8.75
2023-01-18T00:24:03.992Z,8.65
2023-01-18T00:26:33.113Z,8.57
2023-01-18T00:29:02.071Z,8.60
2023-01-18T00:31:31.741Z,8.90
2023-01-18T00:34:00.862Z,8.59
2023-01-18T00:36:32.040Z,8.90
2023-01-18T00:39:02.376Z,8.67
2023-01-18T00:41:31.640Z,8.77
2023-01-18T00:43:59.665Z,8.96
2023-01-18T00:46:28.810Z,9.23
2023-01-18T00:48:59.169Z,9.12
2023-01-18T00:51:28.163Z,8.95
2023-01-18T00:53:57.242Z,8.80
2023-01-18T00:56:28.807Z,8.91
2023-01-18T00:58:57.809Z,8.35
2023-01-18T01:01:27.030Z,8.68
2023-01-18T01:04:14.111Z,8.85
2023-01-18T01:06:46.783Z,8.42
2023-01-18T01:09:19.179Z,8.42
2023-01-18T01:12:08.422Z,8.71
2023-01-18T01:14:57.345Z,8.58
2023-01-18T01:17:44.362Z,8.84
2023-01-18T01:20:31.637Z,8.53
2023-01-18T01:23:27.883Z,8.79
2023-01-18T01:26:09.310Z,8.69
2023-01-18T01:28:42.189Z,8.67
2023-01-18T01:31:12.784Z,8.62
2023-01-18T01:33:43.089Z,9.02
2023-01-18T01:36:14.930Z,9.00
2023-01-18T01:38:44.514Z,9.02
2023-01-18T01:41:17.501Z,8.94
2023-01-18T01:43:49.787Z,8.79
2023-01-18T01:46:30.887Z,8.76
2023-01-18T01:49:06.310Z,9.06
2023-01-18T01:51:37.533Z,8.87
2023-01-18T01:54:11.482Z,8.64
2023-01-18T01:56:42.324Z,8.97
2023-01-18T01:59:13.099Z,8.74
2023-01-18T02:01:44.589Z,8.80
2023-01-18T02:04:17.336Z,8.64
2023-01-18T02:06:46.627Z,7.99
2023-01-18T02:09:21.375Z,8.35
2023-01-18T02:11:52.839Z,8.49
2023-01-18T02:14:27.664Z,8.67
2023-01-18T02:17:10.077Z,8.48
2023-01-18T02:20:09.694Z,8.52
2023-01-18T02:23:01.080Z,8.03
2023-01-18T02:25:58.007Z,8.54
2023-01-18T02:28:34.194Z,8.70
2023-01-18T02:31:09.259Z,8.63
2023-01-18T02:33:44.035Z,8.57
2023-01-18T02:36:26.545Z,8.36
2023-01-18T02:39:03.697Z,8.62
2023-01-18T02:41:51.100Z,8.62
2023-01-18T02:44:46.325Z,8.45
2023-01-18T02:47:16.039Z,8.54
2023-01-18T02:49:45.721Z,8.58
2023-01-18T02:52:52.292Z,8.85
2023-01-18T02:55:32.204Z,8.81
2023-01-18T02:58:06.345Z,8.80
2023-01-18T03:00:42.362Z,8.86
2023-01-18T03:03:13.500Z,8.78
2023-01-18T03:05:46.519Z,8.89
2023-01-18T03:08:22.375Z,8.89
2023-01-18T03:11:02.168Z,8.70
2023-01-18T03:13:48.014Z,8.67
2023-01-18T03:16:25.726Z,8.24
2023-01-18T03:19:01.615Z,8.60
2023-01-18T03:21:39.028Z,8.57
2023-01-18T03:24:10.622Z,8.30
2023-01-18T03:26:43.521Z,8.70
2023-01-18T03:29:33.724Z,8.84
2023-01-18T03:32:28.912Z,8.86
2023-01-18T03:35:03.404Z,8.94
2023-01-18T03:37:37.879Z,8.69
2023-01-18T03:40:12.057Z,9.03
2023-01-18T03:42:46.435Z,9.03
2023-01-18T03:45:24.235Z,9.15
2023-01-18T03:47:55.456Z,9.20
2023-01-18T03:50:30.018Z,8.74
2023-01-18T03:53:05.809Z,9.03
2023-01-18T03:55:42.639Z,8.99
2023-01-18T03:58:13.981Z,9.09
2023-01-18T04:00:43.104Z,9.05
2023-01-18T04:03:13.790Z,9.17
2023-01-18T04:05:43.088Z,9.04
2023-01-18T04:08:12.657Z,9.18
2023-01-18T04:10:42.086Z,8.98
2023-01-18T04:13:11.667Z,8.62
2023-01-18T04:15:40.914Z,8.88
2023-01-18T04:18:10.327Z,8.68
2023-01-18T04:20:40.898Z,9.37
2023-01-18T04:23:10.085Z,9.12
2023-01-18T04:25:40.922Z,8.71
2023-01-18T04:28:13.430Z,8.85
2023-01-18T04:30:43.012Z,8.37
2023-01-18T04:33:12.142Z,9.04
2023-01-18T04:35:42.674Z,8.80
2023-01-18T04:38:11.668Z,8.94
2023-01-18T04:40:41.082Z,9.12
2023-01-18T04:43:10.680Z,8.88
2023-01-18T04:45:41.375Z,9.12
2023-01-18T04:48:10.587Z,9.06
2023-01-18T04:50:40.067Z,9.17
2023-01-18T04:53:10.858Z,8.77
2023-01-18T04:55:40.422Z,8.67
2023-01-18T04:58:10.654Z,8.81
2023-01-18T05:00:40.711Z,8.86
2023-01-18T05:03:10.501Z,8.63
2023-01-18T05:05:40.206Z,8.85
2023-01-18T05:08:11.063Z,9.11
2023-01-18T05:10:40.350Z,8.91
2023-01-18T05:13:09.573Z,8.99
2023-01-18T05:15:40.119Z,8.70
2023-01-18T05:18:11.726Z,9.01
2023-01-18T05:20:41.441Z,9.14
2023-01-18T05:23:14.421Z,9.14
2023-01-18T05:25:43.816Z,9.25
2023-01-18T05:28:17.373Z,9.09
2023-01-18T05:30:51.565Z,9.06
2023-01-18T05:33:24.334Z,9.19
2023-01-18T05:35:56.295Z,9.01
2023-01-18T05:38:31.619Z,9.23
2023-01-18T05:41:01.031Z,8.68
2023-01-18T05:43:32.593Z,8.87
2023-01-18T05:46:06.711Z,8.88
2023-01-18T05:48:36.023Z,7.91
2023-01-18T05:51:09.258Z,8.85
2023-01-18T05:53:47.418Z,8.81
2023-01-18T05:56:20.001Z,8.83
2023-01-18T05:58:56.768Z,8.84
2023-01-18T06:01:28.406Z,8.37
2023-01-18T06:04:09.525Z,8.62
2023-01-18T06:06:38.950Z,8.26
2023-01-18T06:09:09.837Z,8.62
2023-01-18T06:11:41.816Z,8.68
2023-01-18T06:14:11.386Z,8.61
2023-01-18T06:16:40.703Z,9.22
2023-01-18T06:19:10.063Z,9.08
2023-01-18T06:21:39.701Z,9.14
2023-01-18T06:24:11.035Z,8.94
2023-01-18T06:26:41.051Z,9.03
2023-01-18T06:29:10.613Z,9.29
2023-01-18T06:31:40.097Z,9.44
2023-01-18T06:34:10.596Z,9.38
2023-01-18T06:36:41.041Z,9.15
2023-01-18T06:39:13.397Z,9.25
2023-01-18T06:41:46.147Z,9.36
2023-01-18T06:44:18.276Z,9.39
2023-01-18T06:46:47.914Z,9.31
2023-01-18T06:49:22.140Z,9.10
2023-01-18T06:51:51.747Z,9.31
2023-01-18T06:54:22.680Z,9.53
2023-01-18T06:56:52.095Z,9.39
2023-01-18T06:59:24.664Z,9.45
2023-01-18T07:01:55.258Z,9.42
2023-01-18T07:04:24.749Z,9.49
2023-01-18T07:06:54.595Z,9.67
2023-01-18T07:09:26.247Z,9.63
2023-01-18T07:11:55.842Z,9.66
2023-01-18T07:14:25.625Z,9.65
2023-01-18T07:16:55.665Z,9.62
2023-01-18T07:19:25.425Z,9.59
2023-01-18T07:21:55.143Z,9.68
2023-01-18T07:24:26.667Z,9.81
2023-01-18T07:26:59.976Z,9.72
2023-01-18T07:29:31.568Z,9.86
2023-01-18T07:32:09.190Z,9.74
2023-01-18T07:34:38.469Z,9.53
2023-01-18T07:37:08.089Z,9.43
2023-01-18T07:39:39.038Z,9.61
2023-01-18T07:42:09.262Z,9.52
2023-01-18T07:44:42.554Z,9.46
2023-01-18T07:47:12.488Z,10.00
2023-01-18T07:49:42.734Z,9.91
2023-01-18T07:52:13.531Z,9.92
2023-01-18T07:54:44.717Z,9.69
2023-01-18T07:57:17.086Z,9.63
2023-01-18T07:59:46.789Z,9.64
2023-01-18T08:02:17.647Z,9.60
2023-01-18T08:04:50.978Z,9.96
2023-01-18T08:07:20.658Z,9.88
2023-01-18T08:09:51.727Z,10.21
2023-01-18T08:12:23.129Z,9.94
2023-01-18T08:14:52.970Z,9.81
2023-01-18T08:17:22.462Z,9.85
2023-01-18T08:19:51.856Z,10.08
2023-01-18T08:22:25.342Z,9.79
2023-01-18T08:24:55.986Z,9.45
2023-01-18T08:27:27.335Z,9.03
2023-01-18T08:29:57.599Z,9.56
2023-01-18T08:32:27.251Z,10.14
2023-01-18T08:34:57.336Z,9.87
2023-01-18T08:37:27.084Z,10.18
2023-01-18T08:39:58.015Z,9.96
2023-01-18T08:42:27.912Z,9.17
2023-01-18T08:44:58.177Z,10.18
2023-01-18T08:47:29.199Z,10.31
2023-01-18T08:50:01.820Z,9.23
2023-01-18T08:52:31.725Z,10.18
2023-01-18T08:55:06.408Z,10.49
2023-01-18T08:57:36.017Z,10.33
2023-01-18T09:00:13.256Z,10.31
2023-01-18T09:02:44.560Z,10.00
2023-01-18T09:05:14.639Z,10.47
2023-01-18T09:07:45.720Z,10.65
2023-01-18T09:10:16.845Z,10.40
2023-01-18T09:12:48.002Z,10.41
2023-01-18T09:15:18.685Z,10.49
2023-01-18T09:17:48.551Z,10.52
2023-01-18T09:20:21.234Z,10.25
2023-01-18T09:22:51.314Z,10.46
2023-01-18T09:25:24.823Z,10.26
2023-01-18T09:27:54.860Z,10.65
2023-01-18T09:30:24.793Z,10.92
2023-01-18T09:32:54.695Z,10.91
2023-01-18T09:35:24.532Z,10.70
2023-01-18T09:37:58.018Z,10.66
2023-01-18T09:40:38.330Z,10.64
2023-01-18T09:43:17.506Z,11.02
2023-01-18T09:45:49.124Z,11.24
2023-01-18T09:48:30.267Z,11.34
2023-01-18T09:51:06.553Z,11.29
2023-01-18T09:53:52.076Z,11.40
2023-01-18T09:56:28.114Z,10.78
2023-01-18T09:59:06.839Z,10.92
2023-01-18T10:01:38.987Z,10.92
2023-01-18T10:04:17.304Z,10.80
2023-01-18T10:06:50.867Z,11.57
2023-01-18T10:09:22.486Z,11.38
2023-01-18T10:11:59.926Z,10.68
2023-01-18T10:14:43.420Z,11.23
2023-01-18T10:17:18.048Z,10.20
2023-01-18T10:19:47.393Z,11.32
2023-01-18T10:22:23.418Z,11.24
2023-01-18T10:25:03.761Z,11.30
2023-01-18T10:28:05.681Z,10.44
2023-01-18T10:30:57.092Z,11.07
2023-01-18T10:33:30.605Z,11.46
2023-01-18T10:36:11.526Z,11.25
2023-01-18T10:38:45.636Z,10.30
2023-01-18T10:41:21.795Z,9.52
2023-01-18T10:44:11.055Z,10.76
2023-01-18T10:46:43.344Z,10.36
2023-01-18T10:49:41.508Z,10.31
2023-01-18T10:52:26.641Z,11.03
2023-01-18T10:55:01.573Z,11.34
2023-01-18T10:57:35.926Z,10.83
2023-01-18T11:00:21.679Z,10.62
2023-01-18T11:03:00.211Z,9.63
2023-01-18T11:05:37.896Z,10.86
2023-01-18T11:08:22.486Z,11.48
2023-01-18T11:11:01.835Z,11.74
2023-01-18T11:13:43.847Z,11.53
2023-01-18T11:16:20.951Z,11.61
2023-01-18T11:18:59.170Z,11.62
2023-01-18T11:21:46.489Z,11.70
2023-01-18T11:24:24.400Z,11.86
2023-01-18T11:27:10.689Z,11.31
2023-01-18T11:29:47.936Z,11.66
2023-01-18T11:32:27.592Z,11.90
2023-01-18T11:35:00.204Z,11.29
2023-01-18T11:37:34.488Z,10.38
2023-01-18T11:40:28.160Z,10.14
2023-01-18T11:43:03.870Z,11.42
2023-01-18T11:45:38.687Z,11.75
2023-01-18T11:48:15.063Z,11.78
2023-01-18T11:50:48.670Z,11.94
2023-01-18T11:53:31.291Z,11.91
2023-01-18T11:56:08.635Z,11.80
2023-01-18T11:58:38.694Z,11.79
2023-01-18T12:01:26.392Z,11.79
2023-01-18T12:04:04.283Z,11.88
2023-01-18T12:06:45.856Z,11.80
2023-01-18T12:09:25.355Z,11.68
2023-01-18T12:12:18.919Z,11.65
2023-01-18T12:15:06.802Z,11.79
2023-01-18T12:18:07.773Z,12.09
2023-01-18T12:20:55.709Z,12.08
2023-01-18T12:23:51.256Z,12.08
2023-01-18T12:26:42.943Z,12.08
2023-01-18T12:29:37.318Z,12.20
2023-01-18T12:32:16.148Z,12.41
2023-01-18T12:34:55.569Z,12.41
2023-01-18T12:37:41.071Z,12.57
2023-01-18T12:40:34.201Z,12.49
2023-01-18T12:43:16.446Z,12.25
2023-01-18T12:45:54.760Z,12.06
2023-01-18T12:48:30.009Z,12.39
2023-01-18T12:51:00.939Z,11.78
2023-01-18T12:53:40.453Z,12.30
2023-01-18T12:56:20.170Z,12.18
2023-01-18T12:58:55.945Z,12.17
2023-01-18T13:01:28.679Z,12.06
2023-01-18T16:14:38.504Z,11.45
2023-01-18T16:17:14.158Z,12.27
2023-01-18T16:19:45.698Z,12.56
2023-01-18T16:22:21.866Z,12.73
2023-01-18T16:24:57.758Z,12.66
2023-01-18T16:27:29.223Z,12.33
2023-01-18T16:30:03.088Z,12.72
2023-01-18T16:32:38.474Z,12.48
2023-01-18T16:35:15.291Z,12.71
2023-01-18T16:37:45.592Z,12.78
2023-01-18T16:40:16.248Z,12.50
2023-01-18T16:43:02.755Z,12.88
2023-01-18T16:45:36.902Z,12.82
2023-01-18T16:48:15.677Z,12.71
2023-01-18T16:50:45.259Z,12.92
2023-01-18T16:53:14.597Z,12.83
2023-01-18T16:55:45.973Z,12.70
2023-01-18T16:58:16.543Z,12.64
2023-01-18T17:01:05.791Z,13.00
2023-01-18T17:03:55.136Z,12.93
2023-01-18T17:06:29.861Z,12.21
2023-01-18T17:09:13.808Z,12.36
2023-01-18T17:11:43.840Z,12.78
2023-01-18T17:14:45.896Z,12.05
2023-01-18T17:18:01.644Z,11.99
2023-01-18T17:25:28.137Z,11.99
2023-01-18T17:28:21.776Z,12.41
2023-01-18T17:30:53.441Z,13.11
2023-01-18T17:33:36.183Z,12.41
2023-01-18T17:36:07.542Z,12.96
2023-01-18T17:38:52.478Z,12.31
2023-01-18T17:41:27.781Z,13.30
2023-01-18T17:44:00.628Z,12.87
2023-01-18T17:46:30.445Z,13.07
2023-01-18T17:49:04.666Z,12.78
2023-01-18T17:51:35.562Z,12.72
2023-01-18T17:54:10.268Z,13.04
2023-01-18T17:56:42.488Z,13.05
2023-01-18T17:59:19.081Z,12.93
2023-01-18T18:01:52.532Z,12.81
2023-01-18T18:04:24.091Z,12.91
2023-01-18T18:06:58.746Z,12.79
2023-01-18T18:09:28.628Z,12.80
2023-01-18T18:11:58.591Z,12.51
2023-01-18T18:14:34.446Z,12.10
2023-01-18T18:17:07.130Z,11.49
2023-01-18T18:19:41.367Z,12.64
2023-01-18T18:22:20.683Z,11.60
2023-01-18T18:24:53.072Z,12.41
2023-01-18T18:27:24.767Z,12.82
2023-01-18T18:29:56.704Z,12.74
2023-01-18T18:32:26.713Z,12.50
2023-01-18T18:34:58.574Z,12.67
2023-01-18T18:37:58.057Z,10.74
2023-01-18T18:40:41.454Z,11.30
2023-01-18T18:43:11.737Z,12.07
2023-01-18T18:45:45.368Z,12.62
2023-01-18T18:48:15.789Z,12.94
2023-01-18T18:50:56.969Z,12.47
2023-01-18T18:53:37.371Z,12.39
2023-01-18T18:56:10.808Z,11.79
2023-01-18T18:58:40.420Z,12.84
2023-01-18T19:01:20.962Z,11.06
2023-01-18T19:03:52.047Z,12.48
2023-01-18T19:06:26.019Z,12.73
2023-01-18T19:08:57.611Z,12.18
2023-01-18T19:11:41.570Z,12.00
2023-01-18T19:14:17.905Z,12.60
2023-01-18T19:16:48.255Z,12.08
2023-01-18T19:19:18.025Z,12.58
2023-01-18T19:21:51.002Z,12.46
2023-01-18T19:24:21.089Z,12.84
2023-01-18T19:26:50.253Z,12.72
2023-01-18T19:29:20.164Z,12.86
2023-01-18T19:31:50.075Z,12.95
2023-01-18T19:34:21.465Z,13.09
2023-01-18T19:36:53.203Z,12.71
2023-01-18T19:39:23.009Z,12.77
2023-01-18T19:41:52.975Z,12.89
2023-01-18T19:44:22.590Z,12.70
2023-01-18T19:46:53.018Z,13.06
2023-01-18T19:49:25.279Z,12.96
2023-01-18T19:51:56.618Z,12.75
2023-01-18T19:54:26.711Z,12.07
2023-01-18T19:57:03.119Z,12.10
2023-01-18T19:59:34.984Z,12.43
2023-01-18T20:02:04.882Z,11.88
2023-01-18T20:04:34.998Z,11.96
2023-01-18T20:07:06.115Z,12.29
2023-01-18T20:09:43.138Z,12.27
2023-01-18T20:12:15.968Z,11.65
2023-01-18T20:14:48.992Z,12.14
2023-01-18T20:17:25.484Z,12.15
2023-01-18T20:19:55.843Z,12.24
2023-01-18T20:22:26.722Z,12.21
2023-01-18T20:24:55.954Z,11.94
2023-01-18T20:27:24.933Z,11.72
2023-01-18T20:29:54.723Z,11.56
2023-01-18T20:32:27.458Z,11.89
2023-01-18T20:34:58.799Z,11.17
2023-01-18T20:37:30.204Z,11.43
2023-01-18T20:40:03.741Z,11.88
2023-01-18T20:42:42.130Z,12.02
2023-01-18T20:45:27.389Z,10.94
2023-01-18T20:48:01.728Z,11.83
2023-01-18T20:50:34.072Z,11.82
2023-01-18T20:53:05.629Z,11.79
2023-01-18T20:55:38.358Z,11.27
2023-01-18T20:58:10.506Z,11.70
2023-01-18T21:00:42.256Z,11.23
2023-01-18T21:03:18.144Z,11.66
2023-01-18T21:05:47.806Z,11.53
2023-01-18T21:08:19.676Z,11.16
2023-01-18T21:10:51.059Z,11.60
2023-01-18T21:13:22.139Z,10.84
2023-01-18T21:15:59.386Z,11.53
2023-01-18T21:18:30.790Z,11.39
2023-01-18T21:21:05.874Z,11.20
2023-01-18T21:23:56.335Z,11.31
2023-01-18T21:26:32.254Z,11.24
2023-01-18T21:29:02.067Z,11.00
2023-01-18T21:31:33.758Z,10.49
2023-01-18T21:34:24.647Z,10.25
2023-01-18T21:37:00.753Z,10.79
2023-01-18T21:39:31.578Z,10.94
2023-01-18T21:42:19.870Z,10.67
2023-01-18T21:45:07.356Z,10.66
2023-01-18T21:47:51.888Z,10.76
2023-01-18T21:50:42.153Z,10.13
2023-01-18T21:53:45.073Z,10.64
2023-01-18T21:56:21.047Z,10.41
2023-01-18T21:58:58.063Z,10.45
